sensor_id;sensor_type;location;lat;lon;timestamp;temperature;humidity
9776;DHT22;4927;52.472;13.108;2023-09-19T00:00:38;17.90;99.90
9776;DHT22;4927;52.472;13.108;2023-09-19T00:01:40;17.90;99.90
9776;DHT22;4927;52.472;13.108;2023-09-19T00:02:42;17.90;99.90
9776;DHT22;4927;52.472;13.108;2023-09-19T00:03:44;17.90;99.90
9776;DHT22;4927;52.472;13.108;2023-09-19T00:04:46;17.80;99.90
9776;DHT22;4927;52.472;13.108;2023-09-19T00:05:47;17.80;99.90
9776;DHT22;4927;52.472;13.108;2023-09-19T00:06:49;17.90;99.90
9776;DHT22;4927;52.472;13.108;2023-09-19T00:07:52;17.90;99.90
9776;DHT22;4927;52.472;13.108;2023-09-19T00:08:53;17.80;99.90
9776;DHT22;4927;52.472;13.108;2023-09-19T00:09:55;17.80;99.90
9776;DHT22;4927;52.472;13.108;2023-09-19T00:10:56;17.80;99.90
9776;DHT22;4927;52.472;13.108;2023-09-19T00:11:58;17.80;99.90
9776;DHT22;4927;52.472;13.108;2023-09-19T00:13:00;17.80;99.90
9776;DHT22;4927;52.472;13.108;2023-09-19T00:14:01;17.80;99.90
9776;DHT22;4927;52.472;13.108;2023-09-19T00:15:04;17.80;99.90
9776;DHT22;4927;52.472;13.108;2023-09-19T00:16:08;17.80;99.90
9776;DHT22;4927;52.472;13.108;2023-09-19T00:17:11;17.80;99.90
9776;DHT22;4927;52.472;13.108;2023-09-19T00:18:12;17.80;99.90
9776;DHT22;4927;52.472;13.108;2023-09-19T00:19:14;17.80;99.90
9776;DHT22;4927;52.472;13.108;2023-09-19T00:20:16;17.80;99.90
9776;DHT22;4927;52.472;13.108;2023-09-19T00:21:17;17.80;99.90
9776;DHT22;4927;52.472;13.108;2023-09-19T00:22:20;17.80;99.90
9776;DHT22;4927;52.472;13.108;2023-09-19T00:23:22;17.80;99.90
9776;DHT22;4927;52.472;13.108;2023-09-19T00:24:23;17.80;99.90
9776;DHT22;4927;52.472;13.108;2023-09-19T00:25:25;17.80;99.90
9776;DHT22;4927;52.472;13.108;2023-09-19T00:26:27;17.80;99.90
9776;DHT22;4927;52.472;13.108;2023-09-19T00:27:29;17.80;99.90
9776;DHT22;4927;52.472;13.108;2023-09-19T00:28:31;17.70;99.90
9776;DHT22;4927;52.472;13.108;2023-09-19T00:29:33;17.70;99.90
9776;DHT22;4927;52.472;13.108;2023-09-19T00:30:34;17.70;99.90
9776;DHT22;4927;52.472;13.108;2023-09-19T00:31:37;17.70;99.90
9776;DHT22;4927;52.472;13.108;2023-09-19T00:32:38;17.70;99.90
9776;DHT22;4927;52.472;13.108;2023-09-19T00:33:40;17.70;99.90
9776;DHT22;4927;52.472;13.108;2023-09-19T00:34:42;17.70;99.90
9776;DHT22;4927;52.472;13.108;2023-09-19T00:35:49;17.70;99.90
9776;DHT22;4927;52.472;13.108;2023-09-19T00:36:50;17.70;99.90
9776;DHT22;4927;52.472;13.108;2023-09-19T00:37:52;17.70;99.90
9776;DHT22;4927;52.472;13.108;2023-09-19T00:38:54;17.70;99.90
9776;DHT22;4927;52.472;13.108;2023-09-19T00:39:56;17.70;99.90
9776;DHT22;4927;52.472;13.108;2023-09-19T00:40:58;17.70;99.90
9776;DHT22;4927;52.472;13.108;2023-09-19T00:41:59;17.70;99.90
9776;DHT22;4927;52.472;13.108;2023-09-19T00:43:01;17.70;99.90
9776;DHT22;4927;52.472;13.108;2023-09-19T00:44:03;17.70;99.90
9776;DHT22;4927;52.472;13.108;2023-09-19T00:45:07;17.70;99.90
9776;DHT22;4927;52.472;13.108;2023-09-19T00:46:08;17.60;99.90
9776;DHT22;4927;52.472;13.108;2023-09-19T00:47:11;17.70;99.90
9776;DHT22;4927;52.472;13.108;2023-09-19T00:48:12;17.60;99.90
9776;DHT22;4927;52.472;13.108;2023-09-19T00:49:14;17.60;99.90
9776;DHT22;4927;52.472;13.108;2023-09-19T00:50:16;17.60;99.90
9776;DHT22;4927;52.472;13.108;2023-09-19T00:51:18;17.60;99.90
9776;DHT22;4927;52.472;13.108;2023-09-19T00:52:19;17.60;99.90
9776;DHT22;4927;52.472;13.108;2023-09-19T00:53:21;17.60;99.90
9776;DHT22;4927;52.472;13.108;2023-09-19T00:54:23;17.60;99.90
9776;DHT22;4927;52.472;13.108;2023-09-19T00:55:25;17.60;99.90
9776;DHT22;4927;52.472;13.108;2023-09-19T00:56:26;17.60;99.90
9776;DHT22;4927;52.472;13.108;2023-09-19T00:57:28;17.60;99.90
9776;DHT22;4927;52.472;13.108;2023-09-19T00:58:30;17.60;99.90
9776;DHT22;4927;52.472;13.108;2023-09-19T00:59:32;17.50;99.90
9776;DHT22;4927;52.472;13.108;2023-09-19T01:00:34;17.50;99.90
9776;DHT22;4927;52.472;13.108;2023-09-19T01:01:35;17.50;99.90
9776;DHT22;4927;52.472;13.108;2023-09-19T01:02:37;17.50;99.90
9776;DHT22;4927;52.472;13.108;2023-09-19T01:03:39;17.60;99.90
9776;DHT22;4927;52.472;13.108;2023-09-19T01:04:41;17.60;99.90
9776;DHT22;4927;52.472;13.108;2023-09-19T01:05:42;17.60;99.90
9776;DHT22;4927;52.472;13.108;2023-09-19T01:06:45;17.60;99.90
9776;DHT22;4927;52.472;13.108;2023-09-19T01:07:47;17.50;99.90
9776;DHT22;4927;52.472;13.108;2023-09-19T01:08:50;17.60;99.90
9776;DHT22;4927;52.472;13.108;2023-09-19T01:09:51;17.50;99.90
9776;DHT22;4927;52.472;13.108;2023-09-19T01:10:55;17.50;99.90
9776;DHT22;4927;52.472;13.108;2023-09-19T01:11:57;17.50;99.90
9776;DHT22;4927;52.472;13.108;2023-09-19T01:13:08;17.50;99.90
9776;DHT22;4927;52.472;13.108;2023-09-19T01:14:31;17.60;99.90
9776;DHT22;4927;52.472;13.108;2023-09-19T01:15:51;17.50;99.90
9776;DHT22;4927;52.472;13.108;2023-09-19T01:16:58;17.50;99.90
9776;DHT22;4927;52.472;13.108;2023-09-19T01:18:12;17.50;99.90
9776;DHT22;4927;52.472;13.108;2023-09-19T01:19:59;17.50;99.90
9776;DHT22;4927;52.472;13.108;2023-09-19T01:26:07;17.50;99.90
9776;DHT22;4927;52.472;13.108;2023-09-19T01:27:33;17.50;99.90
9776;DHT22;4927;52.472;13.108;2023-09-19T01:28:34;17.50;99.90
9776;DHT22;4927;52.472;13.108;2023-09-19T01:29:41;17.50;99.90
9776;DHT22;4927;52.472;13.108;2023-09-19T01:30:42;17.50;99.90
9776;DHT22;4927;52.472;13.108;2023-09-19T01:31:44;17.50;99.90
9776;DHT22;4927;52.472;13.108;2023-09-19T01:32:45;17.50;99.90
9776;DHT22;4927;52.472;13.108;2023-09-19T01:33:53;17.50;99.90
9776;DHT22;4927;52.472;13.108;2023-09-19T01:34:56;17.40;99.90
9776;DHT22;4927;52.472;13.108;2023-09-19T01:35:58;17.40;99.90
9776;DHT22;4927;52.472;13.108;2023-09-19T01:37:00;17.40;99.90
9776;DHT22;4927;52.472;13.108;2023-09-19T01:38:02;17.40;99.90
9776;DHT22;4927;52.472;13.108;2023-09-19T01:39:07;17.40;99.90
9776;DHT22;4927;52.472;13.108;2023-09-19T01:40:12;17.40;99.90
9776;DHT22;4927;52.472;13.108;2023-09-19T01:41:17;17.40;99.90
9776;DHT22;4927;52.472;13.108;2023-09-19T01:42:28;17.40;99.90
9776;DHT22;4927;52.472;13.108;2023-09-19T01:43:38;17.30;99.90
9776;DHT22;4927;52.472;13.108;2023-09-19T01:45:03;17.30;99.90
9776;DHT22;4927;52.472;13.108;2023-09-19T01:46:14;17.30;99.90
9776;DHT22;4927;52.472;13.108;2023-09-19T01:47:23;17.30;99.90
9776;DHT22;4927;52.472;13.108;2023-09-19T01:48:46;17.30;99.90
9776;DHT22;4927;52.472;13.108;2023-09-19T01:49:55;17.30;99.90
9776;DHT22;4927;52.472;13.108;2023-09-19T01:51:00;17.30;99.90
9776;DHT22;4927;52.472;13.108;2023-09-19T01:52:08;17.30;99.90
9776;DHT22;4927;52.472;13.108;2023-09-19T01:53:10;17.30;99.90
9776;DHT22;4927;52.472;13.108;2023-09-19T01:54:09;17.30;99.90
9776;DHT22;4927;52.472;13.108;2023-09-19T01:55:11;17.20;99.90
9776;DHT22;4927;52.472;13.108;2023-09-19T01:56:16;17.20;99.90
9776;DHT22;4927;52.472;13.108;2023-09-19T01:57:22;17.20;99.90
9776;DHT22;4927;52.472;13.108;2023-09-19T01:58:30;17.20;99.90
9776;DHT22;4927;52.472;13.108;2023-09-19T01:59:35;17.20;99.90
9776;DHT22;4927;52.472;13.108;2023-09-19T02:00:37;17.20;99.90
9776;DHT22;4927;52.472;13.108;2023-09-19T02:01:40;17.20;99.90
9776;DHT22;4927;52.472;13.108;2023-09-19T02:02:43;17.20;99.90
9776;DHT22;4927;52.472;13.108;2023-09-19T02:03:44;17.20;99.90
9776;DHT22;4927;52.472;13.108;2023-09-19T02:04:45;17.10;99.90
9776;DHT22;4927;52.472;13.108;2023-09-19T02:05:49;17.10;99.90
9776;DHT22;4927;52.472;13.108;2023-09-19T02:06:50;17.20;99.90
9776;DHT22;4927;52.472;13.108;2023-09-19T02:07:52;17.10;99.90
9776;DHT22;4927;52.472;13.108;2023-09-19T02:08:55;17.10;99.90
9776;DHT22;4927;52.472;13.108;2023-09-19T02:09:58;17.10;99.90
9776;DHT22;4927;52.472;13.108;2023-09-19T02:10:59;17.10;99.90
9776;DHT22;4927;52.472;13.108;2023-09-19T02:12:03;17.10;99.90
9776;DHT22;4927;52.472;13.108;2023-09-19T02:13:06;17.10;99.90
9776;DHT22;4927;52.472;13.108;2023-09-19T02:14:08;17.00;99.90
9776;DHT22;4927;52.472;13.108;2023-09-19T02:15:18;17.00;99.90
9776;DHT22;4927;52.472;13.108;2023-09-19T02:16:20;17.00;99.90
9776;DHT22;4927;52.472;13.108;2023-09-19T02:17:22;17.00;99.90
9776;DHT22;4927;52.472;13.108;2023-09-19T02:18:23;17.00;99.90
9776;DHT22;4927;52.472;13.108;2023-09-19T02:19:25;17.00;99.90
9776;DHT22;4927;52.472;13.108;2023-09-19T02:20:27;17.00;99.90
9776;DHT22;4927;52.472;13.108;2023-09-19T02:21:29;17.00;99.90
9776;DHT22;4927;52.472;13.108;2023-09-19T02:22:31;17.00;99.90
9776;DHT22;4927;52.472;13.108;2023-09-19T02:23:34;17.00;99.90
9776;DHT22;4927;52.472;13.108;2023-09-19T02:24:37;16.90;99.90
9776;DHT22;4927;52.472;13.108;2023-09-19T02:25:39;17.00;99.90
9776;DHT22;4927;52.472;13.108;2023-09-19T02:26:41;16.90;99.90
9776;DHT22;4927;52.472;13.108;2023-09-19T02:27:42;16.90;99.90
9776;DHT22;4927;52.472;13.108;2023-09-19T02:28:44;16.90;99.90
9776;DHT22;4927;52.472;13.108;2023-09-19T02:29:46;16.90;99.90
9776;DHT22;4927;52.472;13.108;2023-09-19T02:30:48;16.90;99.90
9776;DHT22;4927;52.472;13.108;2023-09-19T02:31:50;16.90;99.90
9776;DHT22;4927;52.472;13.108;2023-09-19T02:32:53;16.90;99.90
9776;DHT22;4927;52.472;13.108;2023-09-19T02:33:55;16.90;99.90
9776;DHT22;4927;52.472;13.108;2023-09-19T02:34:57;16.90;99.90
9776;DHT22;4927;52.472;13.108;2023-09-19T02:36:00;16.90;99.90
9776;DHT22;4927;52.472;13.108;2023-09-19T02:37:03;16.80;99.90
9776;DHT22;4927;52.472;13.108;2023-09-19T02:38:05;16.80;99.90
9776;DHT22;4927;52.472;13.108;2023-09-19T02:39:07;16.80;99.90
9776;DHT22;4927;52.472;13.108;2023-09-19T02:40:10;16.80;99.90
9776;DHT22;4927;52.472;13.108;2023-09-19T02:41:12;16.80;99.90
9776;DHT22;4927;52.472;13.108;2023-09-19T02:42:14;16.80;99.90
9776;DHT22;4927;52.472;13.108;2023-09-19T02:43:15;16.80;99.90
9776;DHT22;4927;52.472;13.108;2023-09-19T02:44:18;16.80;99.90
9776;DHT22;4927;52.472;13.108;2023-09-19T02:45:20;16.80;99.90
9776;DHT22;4927;52.472;13.108;2023-09-19T02:46:22;16.80;99.90
9776;DHT22;4927;52.472;13.108;2023-09-19T02:47:24;16.70;99.90
9776;DHT22;4927;52.472;13.108;2023-09-19T02:48:26;16.70;99.90
9776;DHT22;4927;52.472;13.108;2023-09-19T02:49:28;16.70;99.90
9776;DHT22;4927;52.472;13.108;2023-09-19T02:50:31;16.70;99.90
9776;DHT22;4927;52.472;13.108;2023-09-19T02:51:33;16.70;99.90
9776;DHT22;4927;52.472;13.108;2023-09-19T02:52:35;16.70;99.90
9776;DHT22;4927;52.472;13.108;2023-09-19T02:53:36;16.70;99.90
9776;DHT22;4927;52.472;13.108;2023-09-19T02:54:38;16.70;99.90
9776;DHT22;4927;52.472;13.108;2023-09-19T02:55:40;16.70;99.90
9776;DHT22;4927;52.472;13.108;2023-09-19T02:56:42;16.60;99.90
9776;DHT22;4927;52.472;13.108;2023-09-19T02:57:46;16.60;99.90
9776;DHT22;4927;52.472;13.108;2023-09-19T02:58:48;16.60;99.90
9776;DHT22;4927;52.472;13.108;2023-09-19T02:59:50;16.60;99.90
9776;DHT22;4927;52.472;13.108;2023-09-19T03:00:52;16.60;99.90
9776;DHT22;4927;52.472;13.108;2023-09-19T03:01:53;16.60;99.90
9776;DHT22;4927;52.472;13.108;2023-09-19T03:02:56;16.60;99.90
9776;DHT22;4927;52.472;13.108;2023-09-19T03:03:57;16.60;99.90
9776;DHT22;4927;52.472;13.108;2023-09-19T03:05:01;16.60;99.90
9776;DHT22;4927;52.472;13.108;2023-09-19T03:06:03;16.60;99.90
9776;DHT22;4927;52.472;13.108;2023-09-19T03:07:06;16.60;99.90
9776;DHT22;4927;52.472;13.108;2023-09-19T03:08:08;16.60;99.90
9776;DHT22;4927;52.472;13.108;2023-09-19T03:09:10;16.60;99.90
9776;DHT22;4927;52.472;13.108;2023-09-19T03:10:12;16.60;99.90
9776;DHT22;4927;52.472;13.108;2023-09-19T03:11:14;16.60;99.90
9776;DHT22;4927;52.472;13.108;2023-09-19T03:12:16;16.60;99.90
9776;DHT22;4927;52.472;13.108;2023-09-19T03:13:18;16.50;99.90
9776;DHT22;4927;52.472;13.108;2023-09-19T03:14:20;16.50;99.90
9776;DHT22;4927;52.472;13.108;2023-09-19T03:15:23;16.60;99.90
9776;DHT22;4927;52.472;13.108;2023-09-19T03:16:31;16.50;99.90
9776;DHT22;4927;52.472;13.108;2023-09-19T03:17:33;16.50;99.90
9776;DHT22;4927;52.472;13.108;2023-09-19T03:18:35;16.50;99.90
9776;DHT22;4927;52.472;13.108;2023-09-19T03:19:37;16.50;99.90
9776;DHT22;4927;52.472;13.108;2023-09-19T03:20:40;16.50;99.90
9776;DHT22;4927;52.472;13.108;2023-09-19T03:21:41;16.50;99.90
9776;DHT22;4927;52.472;13.108;2023-09-19T03:22:44;16.50;99.90
9776;DHT22;4927;52.472;13.108;2023-09-19T03:23:46;16.50;99.90
9776;DHT22;4927;52.472;13.108;2023-09-19T03:24:48;16.50;99.90
9776;DHT22;4927;52.472;13.108;2023-09-19T03:25:50;16.50;99.90
9776;DHT22;4927;52.472;13.108;2023-09-19T03:26:52;16.50;99.90
9776;DHT22;4927;52.472;13.108;2023-09-19T03:27:55;16.40;99.90
9776;DHT22;4927;52.472;13.108;2023-09-19T03:28:56;16.40;99.90
9776;DHT22;4927;52.472;13.108;2023-09-19T03:29:58;16.40;99.90
9776;DHT22;4927;52.472;13.108;2023-09-19T03:31:01;16.40;99.90
9776;DHT22;4927;52.472;13.108;2023-09-19T03:32:05;16.50;99.90
9776;DHT22;4927;52.472;13.108;2023-09-19T03:33:07;16.40;99.90
9776;DHT22;4927;52.472;13.108;2023-09-19T03:34:09;16.50;99.90
9776;DHT22;4927;52.472;13.108;2023-09-19T03:35:11;16.40;99.90
9776;DHT22;4927;52.472;13.108;2023-09-19T03:36:13;16.40;99.90
9776;DHT22;4927;52.472;13.108;2023-09-19T03:37:16;16.50;99.90
9776;DHT22;4927;52.472;13.108;2023-09-19T03:38:18;16.50;99.90
9776;DHT22;4927;52.472;13.108;2023-09-19T03:39:20;16.40;99.90
9776;DHT22;4927;52.472;13.108;2023-09-19T03:40:22;16.40;99.90
9776;DHT22;4927;52.472;13.108;2023-09-19T03:41:24;16.40;99.90
9776;DHT22;4927;52.472;13.108;2023-09-19T03:42:26;16.40;99.90
9776;DHT22;4927;52.472;13.108;2023-09-19T03:43:28;16.40;99.90
9776;DHT22;4927;52.472;13.108;2023-09-19T03:44:30;16.40;99.90
9776;DHT22;4927;52.472;13.108;2023-09-19T03:45:31;16.40;99.90
9776;DHT22;4927;52.472;13.108;2023-09-19T03:46:33;16.40;99.90
9776;DHT22;4927;52.472;13.108;2023-09-19T03:47:35;16.40;99.90
9776;DHT22;4927;52.472;13.108;2023-09-19T03:48:37;16.40;99.90
9776;DHT22;4927;52.472;13.108;2023-09-19T03:49:39;16.40;99.90
9776;DHT22;4927;52.472;13.108;2023-09-19T03:50:40;16.40;99.90
9776;DHT22;4927;52.472;13.108;2023-09-19T03:51:42;16.40;99.90
9776;DHT22;4927;52.472;13.108;2023-09-19T03:52:44;16.40;99.90
9776;DHT22;4927;52.472;13.108;2023-09-19T03:53:46;16.40;99.90
9776;DHT22;4927;52.472;13.108;2023-09-19T03:54:48;16.40;99.90
9776;DHT22;4927;52.472;13.108;2023-09-19T03:55:49;16.40;99.90
9776;DHT22;4927;52.472;13.108;2023-09-19T03:56:52;16.40;99.90
9776;DHT22;4927;52.472;13.108;2023-09-19T03:57:54;16.40;99.90
9776;DHT22;4927;52.472;13.108;2023-09-19T03:58:55;16.40;99.90
9776;DHT22;4927;52.472;13.108;2023-09-19T03:59:58;16.40;99.90
9776;DHT22;4927;52.472;13.108;2023-09-19T04:01:00;16.40;99.90
9776;DHT22;4927;52.472;13.108;2023-09-19T04:02:02;16.40;99.90
9776;DHT22;4927;52.472;13.108;2023-09-19T04:03:04;16.30;99.90
9776;DHT22;4927;52.472;13.108;2023-09-19T04:04:06;16.30;99.90
9776;DHT22;4927;52.472;13.108;2023-09-19T04:05:09;16.30;99.90
9776;DHT22;4927;52.472;13.108;2023-09-19T04:06:12;16.30;99.90
9776;DHT22;4927;52.472;13.108;2023-09-19T04:07:14;16.30;99.90
9776;DHT22;4927;52.472;13.108;2023-09-19T04:08:15;16.30;99.90
9776;DHT22;4927;52.472;13.108;2023-09-19T04:09:17;16.30;99.90
9776;DHT22;4927;52.472;13.108;2023-09-19T04:10:19;16.30;99.90
9776;DHT22;4927;52.472;13.108;2023-09-19T04:11:21;16.30;99.90
9776;DHT22;4927;52.472;13.108;2023-09-19T04:12:23;16.30;99.90
9776;DHT22;4927;52.472;13.108;2023-09-19T04:13:25;16.30;99.90
9776;DHT22;4927;52.472;13.108;2023-09-19T04:14:26;16.20;99.90
9776;DHT22;4927;52.472;13.108;2023-09-19T04:15:28;16.20;99.90
9776;DHT22;4927;52.472;13.108;2023-09-19T04:16:30;16.20;99.90
9776;DHT22;4927;52.472;13.108;2023-09-19T04:17:32;16.20;99.90
9776;DHT22;4927;52.472;13.108;2023-09-19T04:18:34;16.20;99.90
9776;DHT22;4927;52.472;13.108;2023-09-19T04:19:35;16.20;99.90
9776;DHT22;4927;52.472;13.108;2023-09-19T04:20:37;16.20;99.90
9776;DHT22;4927;52.472;13.108;2023-09-19T04:21:40;16.20;99.90
9776;DHT22;4927;52.472;13.108;2023-09-19T04:22:42;16.20;99.90
9776;DHT22;4927;52.472;13.108;2023-09-19T04:23:43;16.20;99.90
9776;DHT22;4927;52.472;13.108;2023-09-19T04:24:45;16.10;99.90
9776;DHT22;4927;52.472;13.108;2023-09-19T04:25:47;16.10;99.90
9776;DHT22;4927;52.472;13.108;2023-09-19T04:26:49;16.10;99.90
9776;DHT22;4927;52.472;13.108;2023-09-19T04:27:50;16.10;99.90
9776;DHT22;4927;52.472;13.108;2023-09-19T04:28:52;16.10;99.90
9776;DHT22;4927;52.472;13.108;2023-09-19T04:29:55;16.10;99.90
9776;DHT22;4927;52.472;13.108;2023-09-19T04:30:56;16.10;99.90
9776;DHT22;4927;52.472;13.108;2023-09-19T04:31:59;16.10;99.90
9776;DHT22;4927;52.472;13.108;2023-09-19T04:33:01;16.00;99.90
9776;DHT22;4927;52.472;13.108;2023-09-19T04:34:04;16.10;99.90
9776;DHT22;4927;52.472;13.108;2023-09-19T04:35:06;16.00;99.90
9776;DHT22;4927;52.472;13.108;2023-09-19T04:36:09;16.00;99.90
9776;DHT22;4927;52.472;13.108;2023-09-19T04:37:10;16.00;99.90
9776;DHT22;4927;52.472;13.108;2023-09-19T04:38:12;16.00;99.90
9776;DHT22;4927;52.472;13.108;2023-09-19T04:39:14;16.00;99.90
9776;DHT22;4927;52.472;13.108;2023-09-19T04:40:16;16.00;99.90
9776;DHT22;4927;52.472;13.108;2023-09-19T04:41:19;16.00;99.90
9776;DHT22;4927;52.472;13.108;2023-09-19T04:42:21;16.00;99.90
9776;DHT22;4927;52.472;13.108;2023-09-19T04:43:23;16.00;99.90
9776;DHT22;4927;52.472;13.108;2023-09-19T04:44:25;16.00;99.90
9776;DHT22;4927;52.472;13.108;2023-09-19T04:45:27;15.90;99.90
9776;DHT22;4927;52.472;13.108;2023-09-19T04:46:29;16.00;99.90
9776;DHT22;4927;52.472;13.108;2023-09-19T04:47:31;15.90;99.90
9776;DHT22;4927;52.472;13.108;2023-09-19T04:48:33;15.90;99.90
9776;DHT22;4927;52.472;13.108;2023-09-19T04:49:34;16.00;99.90
9776;DHT22;4927;52.472;13.108;2023-09-19T04:50:36;16.00;99.90
9776;DHT22;4927;52.472;13.108;2023-09-19T04:51:38;15.90;99.90
9776;DHT22;4927;52.472;13.108;2023-09-19T04:52:40;15.90;99.90
9776;DHT22;4927;52.472;13.108;2023-09-19T04:53:41;15.90;99.90
9776;DHT22;4927;52.472;13.108;2023-09-19T04:54:43;15.90;99.90
9776;DHT22;4927;52.472;13.108;2023-09-19T04:55:45;15.90;99.90
9776;DHT22;4927;52.472;13.108;2023-09-19T04:56:47;15.90;99.90
9776;DHT22;4927;52.472;13.108;2023-09-19T04:57:49;15.90;99.90
9776;DHT22;4927;52.472;13.108;2023-09-19T04:58:51;16.00;99.90
9776;DHT22;4927;52.472;13.108;2023-09-19T04:59:53;15.90;99.90
9776;DHT22;4927;52.472;13.108;2023-09-19T05:00:55;15.90;99.90
9776;DHT22;4927;52.472;13.108;2023-09-19T05:01:58;15.90;99.90
9776;DHT22;4927;52.472;13.108;2023-09-19T05:02:59;15.90;99.90
9776;DHT22;4927;52.472;13.108;2023-09-19T05:04:03;15.90;99.90
9776;DHT22;4927;52.472;13.108;2023-09-19T05:05:08;15.90;99.90
9776;DHT22;4927;52.472;13.108;2023-09-19T05:06:10;15.90;99.90
9776;DHT22;4927;52.472;13.108;2023-09-19T05:07:12;15.90;99.90
9776;DHT22;4927;52.472;13.108;2023-09-19T05:08:14;15.90;99.90
9776;DHT22;4927;52.472;13.108;2023-09-19T05:09:16;15.90;99.90
9776;DHT22;4927;52.472;13.108;2023-09-19T05:10:18;15.90;99.90
9776;DHT22;4927;52.472;13.108;2023-09-19T05:11:20;15.90;99.90
9776;DHT22;4927;52.472;13.108;2023-09-19T05:12:22;15.90;99.90
9776;DHT22;4927;52.472;13.108;2023-09-19T05:13:24;15.90;99.90
9776;DHT22;4927;52.472;13.108;2023-09-19T05:14:26;15.90;99.90
9776;DHT22;4927;52.472;13.108;2023-09-19T05:15:28;15.80;99.90
9776;DHT22;4927;52.472;13.108;2023-09-19T05:16:30;15.80;99.90
9776;DHT22;4927;52.472;13.108;2023-09-19T05:17:34;15.80;99.90
9776;DHT22;4927;52.472;13.108;2023-09-19T05:18:36;15.80;99.90
9776;DHT22;4927;52.472;13.108;2023-09-19T05:19:37;15.80;99.90
9776;DHT22;4927;52.472;13.108;2023-09-19T05:20:40;15.80;99.90
9776;DHT22;4927;52.472;13.108;2023-09-19T05:21:42;15.80;99.90
9776;DHT22;4927;52.472;13.108;2023-09-19T05:22:43;15.80;99.90
9776;DHT22;4927;52.472;13.108;2023-09-19T05:23:46;15.80;99.90
9776;DHT22;4927;52.472;13.108;2023-09-19T05:24:48;15.80;99.90
9776;DHT22;4927;52.472;13.108;2023-09-19T05:25:50;15.80;99.90
9776;DHT22;4927;52.472;13.108;2023-09-19T05:26:51;15.80;99.90
9776;DHT22;4927;52.472;13.108;2023-09-19T05:27:53;15.80;99.90
9776;DHT22;4927;52.472;13.108;2023-09-19T05:28:55;15.80;99.90
9776;DHT22;4927;52.472;13.108;2023-09-19T05:29:57;15.80;99.90
9776;DHT22;4927;52.472;13.108;2023-09-19T05:31:00;15.80;99.90
9776;DHT22;4927;52.472;13.108;2023-09-19T05:32:00;15.70;99.90
9776;DHT22;4927;52.472;13.108;2023-09-19T05:33:03;15.70;99.90
9776;DHT22;4927;52.472;13.108;2023-09-19T05:34:06;15.70;99.90
9776;DHT22;4927;52.472;13.108;2023-09-19T05:35:07;15.70;99.90
9776;DHT22;4927;52.472;13.108;2023-09-19T05:36:09;15.70;99.90
9776;DHT22;4927;52.472;13.108;2023-09-19T05:37:11;15.70;99.90
9776;DHT22;4927;52.472;13.108;2023-09-19T05:38:13;15.70;99.90
9776;DHT22;4927;52.472;13.108;2023-09-19T05:39:14;15.70;99.90
9776;DHT22;4927;52.472;13.108;2023-09-19T05:40:18;15.70;99.90
9776;DHT22;4927;52.472;13.108;2023-09-19T05:41:19;15.70;99.90
9776;DHT22;4927;52.472;13.108;2023-09-19T05:42:21;15.70;99.90
9776;DHT22;4927;52.472;13.108;2023-09-19T05:43:23;15.70;99.90
9776;DHT22;4927;52.472;13.108;2023-09-19T05:44:24;15.70;99.90
9776;DHT22;4927;52.472;13.108;2023-09-19T05:45:27;15.70;99.90
9776;DHT22;4927;52.472;13.108;2023-09-19T05:46:29;15.70;99.90
9776;DHT22;4927;52.472;13.108;2023-09-19T05:47:30;15.70;99.90
9776;DHT22;4927;52.472;13.108;2023-09-19T05:48:33;15.70;99.90
9776;DHT22;4927;52.472;13.108;2023-09-19T05:49:35;15.70;99.90
9776;DHT22;4927;52.472;13.108;2023-09-19T05:50:37;15.70;99.90
9776;DHT22;4927;52.472;13.108;2023-09-19T05:51:38;15.70;99.90
9776;DHT22;4927;52.472;13.108;2023-09-19T05:52:40;15.70;99.90
9776;DHT22;4927;52.472;13.108;2023-09-19T05:53:42;15.70;99.90
9776;DHT22;4927;52.472;13.108;2023-09-19T05:54:44;15.70;99.90
9776;DHT22;4927;52.472;13.108;2023-09-19T05:55:52;15.70;99.90
9776;DHT22;4927;52.472;13.108;2023-09-19T05:57:03;15.70;99.90
9776;DHT22;4927;52.472;13.108;2023-09-19T05:58:05;15.70;99.90
9776;DHT22;4927;52.472;13.108;2023-09-19T05:59:06;15.70;99.90
9776;DHT22;4927;52.472;13.108;2023-09-19T06:00:09;15.70;99.90
9776;DHT22;4927;52.472;13.108;2023-09-19T06:01:12;15.70;99.90
9776;DHT22;4927;52.472;13.108;2023-09-19T06:02:14;15.70;99.90
9776;DHT22;4927;52.472;13.108;2023-09-19T06:03:15;15.70;99.90
9776;DHT22;4927;52.472;13.108;2023-09-19T06:04:17;15.70;99.90
9776;DHT22;4927;52.472;13.108;2023-09-19T06:05:19;15.80;99.90
9776;DHT22;4927;52.472;13.108;2023-09-19T06:06:21;15.80;99.90
9776;DHT22;4927;52.472;13.108;2023-09-19T06:07:23;15.80;99.90
9776;DHT22;4927;52.472;13.108;2023-09-19T06:08:25;15.80;99.90
9776;DHT22;4927;52.472;13.108;2023-09-19T06:09:28;15.80;99.90
9776;DHT22;4927;52.472;13.108;2023-09-19T06:10:29;15.80;99.90
9776;DHT22;4927;52.472;13.108;2023-09-19T06:11:31;15.80;99.90
9776;DHT22;4927;52.472;13.108;2023-09-19T06:12:33;15.90;99.90
9776;DHT22;4927;52.472;13.108;2023-09-19T06:13:35;15.90;99.90
9776;DHT22;4927;52.472;13.108;2023-09-19T06:14:37;15.90;99.90
9776;DHT22;4927;52.472;13.108;2023-09-19T06:15:38;15.90;99.90
9776;DHT22;4927;52.472;13.108;2023-09-19T06:16:40;15.90;99.90
9776;DHT22;4927;52.472;13.108;2023-09-19T06:17:46;15.90;99.90
9776;DHT22;4927;52.472;13.108;2023-09-19T06:18:45;15.90;99.90
9776;DHT22;4927;52.472;13.108;2023-09-19T06:19:46;16.00;99.90
9776;DHT22;4927;52.472;13.108;2023-09-19T06:20:48;16.00;99.90
9776;DHT22;4927;52.472;13.108;2023-09-19T06:21:50;16.00;99.90
9776;DHT22;4927;52.472;13.108;2023-09-19T06:22:52;16.10;99.90
9776;DHT22;4927;52.472;13.108;2023-09-19T06:23:54;16.10;99.90
9776;DHT22;4927;52.472;13.108;2023-09-19T06:24:56;16.10;99.90
9776;DHT22;4927;52.472;13.108;2023-09-19T06:25:58;16.10;99.90
9776;DHT22;4927;52.472;13.108;2023-09-19T06:27:00;16.20;99.90
9776;DHT22;4927;52.472;13.108;2023-09-19T06:28:03;16.30;99.90
9776;DHT22;4927;52.472;13.108;2023-09-19T06:29:05;16.30;99.90
9776;DHT22;4927;52.472;13.108;2023-09-19T06:30:08;16.30;99.90
9776;DHT22;4927;52.472;13.108;2023-09-19T06:31:11;16.30;99.90
9776;DHT22;4927;52.472;13.108;2023-09-19T06:32:13;16.40;99.90
9776;DHT22;4927;52.472;13.108;2023-09-19T06:33:16;16.50;99.90
9776;DHT22;4927;52.472;13.108;2023-09-19T06:34:17;16.50;99.90
9776;DHT22;4927;52.472;13.108;2023-09-19T06:35:19;16.50;99.90
9776;DHT22;4927;52.472;13.108;2023-09-19T06:36:21;16.50;99.90
9776;DHT22;4927;52.472;13.108;2023-09-19T06:37:23;16.60;99.90
9776;DHT22;4927;52.472;13.108;2023-09-19T06:38:25;16.60;99.90
9776;DHT22;4927;52.472;13.108;2023-09-19T06:39:27;16.70;99.90
9776;DHT22;4927;52.472;13.108;2023-09-19T06:40:30;16.70;99.90
9776;DHT22;4927;52.472;13.108;2023-09-19T06:41:32;16.80;99.90
9776;DHT22;4927;52.472;13.108;2023-09-19T06:42:33;16.80;99.90
9776;DHT22;4927;52.472;13.108;2023-09-19T06:43:35;16.80;99.90
9776;DHT22;4927;52.472;13.108;2023-09-19T06:44:38;16.90;99.90
9776;DHT22;4927;52.472;13.108;2023-09-19T06:45:41;16.90;99.90
9776;DHT22;4927;52.472;13.108;2023-09-19T06:46:43;16.90;99.90
9776;DHT22;4927;52.472;13.108;2023-09-19T06:47:45;17.00;99.90